createdAt,value
2023-02-02T04:33:52.053Z,31.91
2023-02-02T04:34:52.039Z,33.07
2023-02-02T04:35:52.021Z,30.06
2023-02-02T04:36:52.018Z,32.93
2023-02-02T04:37:52.004Z,30.39
2023-02-02T04:38:52.024Z,30.85
2023-02-02T04:39:51.984Z,29.00
2023-02-02T04:40:51.994Z,30.92
2023-02-02T04:41:51.965Z,31.13
2023-02-02T04:42:51.958Z,31.27
2023-02-02T04:43:51.965Z,32.43
2023-02-02T04:44:51.940Z,33.05
2023-02-02T04:45:51.969Z,31.75
2023-02-02T04:46:51.926Z,29.70
2023-02-02T04:47:51.926Z,31.52
2023-02-02T04:48:51.901Z,30.77
2023-02-02T04:49:51.896Z,29.25
2023-02-02T04:50:51.884Z,29.31
2023-02-02T04:51:51.877Z,30.96
2023-02-02T04:52:51.874Z,30.69
2023-02-02T04:53:51.860Z,29.32
2023-02-02T04:54:51.879Z,31.29
2023-02-02T04:55:51.843Z,28.51
2023-02-02T04:56:51.834Z,28.06
2023-02-02T04:57:51.821Z,28.61
2023-02-02T04:58:51.812Z,30.01
2023-02-02T04:59:51.808Z,29.36
2023-02-02T05:00:51.803Z,31.09
2023-02-02T05:01:51.794Z,28.45
2023-02-02T05:02:51.789Z,29.02
2023-02-02T05:03:51.765Z,27.72
2023-02-02T05:04:51.759Z,29.95
2023-02-02T05:05:51.769Z,30.51
2023-02-02T05:06:51.744Z,29.14
2023-02-02T05:07:51.737Z,27.42
2023-02-02T05:08:51.726Z,28.52
2023-02-02T05:09:51.746Z,28.25
2023-02-02T05:10:51.730Z,27.25
2023-02-02T05:11:51.695Z,31.13
2023-02-02T05:12:51.688Z,30.94
2023-02-02T05:13:51.691Z,30.86
2023-02-02T05:14:51.668Z,28.78
2023-02-02T05:15:51.665Z,29.41
2023-02-02T05:16:51.720Z,31.05
2023-02-02T05:17:51.640Z,31.76
2023-02-02T05:18:51.632Z,30.79
2023-02-02T05:19:51.628Z,28.29
2023-02-02T05:20:51.614Z,29.26
2023-02-02T05:21:51.642Z,27.29
2023-02-02T05:22:51.604Z,27.68
2023-02-02T05:23:51.597Z,31.08
2023-02-02T05:24:51.584Z,29.91
2023-02-02T05:25:51.571Z,29.10
2023-02-02T05:26:51.611Z,29.97
2023-02-02T05:27:51.556Z,32.08
2023-02-02T05:28:51.549Z,26.94
2023-02-02T05:29:51.537Z,29.32
2023-02-02T05:30:51.643Z,26.41
2023-02-02T05:31:51.557Z,29.81
2023-02-02T05:32:51.509Z,27.17
2023-02-02T05:33:51.512Z,27.40
2023-02-02T05:34:51.495Z,27.46
2023-02-02T05:35:51.484Z,27.91
2023-02-02T05:36:51.489Z,27.49
2023-02-02T05:37:51.479Z,25.96
2023-02-02T05:38:51.463Z,25.77
2023-02-02T05:39:51.446Z,28.29
2023-02-02T05:40:51.438Z,30.63
2023-02-02T05:41:51.432Z,29.06
2023-02-02T05:42:51.449Z,29.79
2023-02-02T05:43:51.455Z,30.76
2023-02-02T05:44:51.405Z,28.23
2023-02-02T05:45:51.419Z,27.37
2023-02-02T05:46:51.381Z,25.93
2023-02-02T05:47:51.377Z,27.10
2023-02-02T05:48:51.368Z,28.86
2023-02-02T05:49:51.359Z,28.36
2023-02-02T05:50:51.354Z,27.23
2023-02-02T05:51:51.338Z,29.44
2023-02-02T05:52:51.344Z,28.43
2023-02-02T05:53:51.324Z,29.40
2023-02-02T05:54:51.311Z,27.42
2023-02-02T05:55:51.300Z,28.53
2023-02-02T05:56:51.297Z,29.68
2023-02-02T05:57:51.291Z,30.22
2023-02-02T05:58:51.301Z,27.49
2023-02-02T05:59:51.266Z,28.16
2023-02-02T06:00:51.265Z,29.21
2023-02-02T06:01:51.252Z,30.24
2023-02-02T06:02:51.297Z,28.34
2023-02-02T06:03:51.382Z,29.56
2023-02-02T06:04:51.220Z,28.54
2023-02-02T06:05:51.216Z,28.06
2023-02-02T06:06:51.211Z,29.69
2023-02-02T06:07:51.193Z,27.75
2023-02-02T06:08:51.195Z,29.40
2023-02-02T06:09:51.174Z,27.83
2023-02-02T06:10:51.171Z,27.56
2023-02-02T06:11:51.158Z,28.88
2023-02-02T06:12:51.196Z,30.50
2023-02-02T06:13:51.307Z,28.10
2023-02-02T06:14:51.167Z,27.84
2023-02-02T06:15:51.150Z,27.29
2023-02-02T06:16:51.113Z,28.41
2023-02-02T06:17:51.105Z,29.25
2023-02-02T06:18:51.097Z,27.12
2023-02-02T06:19:51.096Z,27.40
2023-02-02T06:20:51.082Z,28.37
2023-02-02T06:21:51.077Z,28.58
2023-02-02T06:22:51.303Z,25.99
2023-02-02T06:23:51.050Z,29.51
2023-02-02T06:24:51.044Z,28.95
2023-02-02T06:25:51.032Z,28.03
2023-02-02T06:26:51.103Z,27.17
2023-02-02T06:27:51.031Z,28.29
2023-02-02T06:28:51.018Z,31.85
2023-02-02T06:29:51.002Z,30.36
2023-02-02T06:30:51.099Z,32.60
2023-02-02T06:31:51.084Z,32.46
2023-02-02T06:32:51.307Z,33.65
2023-02-02T06:33:50.968Z,34.22
2023-02-02T06:34:50.957Z,33.02
2023-02-02T06:35:50.954Z,32.86
2023-02-02T06:36:51.325Z,34.84
2023-02-02T06:37:50.923Z,38.47
2023-02-02T06:38:51.316Z,39.62
2023-02-02T06:39:50.911Z,36.56
2023-02-02T06:40:50.903Z,38.34
2023-02-02T06:41:50.897Z,38.17
2023-02-02T06:42:50.892Z,43.76
2023-02-02T06:43:51.316Z,44.53
2023-02-02T06:44:50.870Z,43.38
2023-02-02T06:45:50.866Z,43.34
2023-02-02T06:46:50.872Z,43.18
2023-02-02T06:47:50.844Z,47.21
2023-02-02T06:48:51.347Z,48.35
2023-02-02T06:49:50.855Z,49.91
2023-02-02T06:50:50.821Z,50.29
2023-02-02T06:51:50.820Z,49.83
2023-02-02T06:52:51.804Z,53.34
2023-02-02T06:54:50.817Z,57.83
2023-02-02T06:55:50.798Z,59.01
2023-02-02T06:56:51.771Z,64.37
2023-02-02T06:57:50.813Z,75.71
2023-02-02T06:58:50.747Z,95.11
2023-02-02T06:59:50.731Z,99.57
2023-02-02T07:00:50.752Z,105.78
2023-02-02T07:01:50.815Z,111.45
2023-02-02T07:03:50.699Z,116.42
2023-02-02T07:04:50.706Z,118.03
2023-02-02T07:07:50.828Z,117.05
2023-02-02T07:09:58.182Z,122.51
2023-02-02T07:12:50.821Z,123.56
2023-02-02T07:24:50.827Z,139.21
2023-02-02T07:25:50.840Z,135.65
2023-02-02T07:28:50.825Z,138.91
2023-02-02T07:43:50.845Z,130.12
2023-02-02T07:44:50.762Z,131.44
2023-02-02T07:57:51.223Z,129.31
2023-02-02T08:34:49.916Z,106.52
2023-02-02T09:54:49.215Z,181.06
2023-02-02T10:37:48.891Z,217.24
2023-02-02T10:40:52.075Z,234.12
2023-02-02T10:49:51.771Z,246.44
2023-02-02T12:13:48.267Z,242.69
2023-02-02T12:17:47.970Z,231.57
2023-02-02T13:58:47.011Z,135.79
2023-02-02T13:59:46.967Z,136.43
2023-02-02T14:00:46.956Z,137.00
2023-02-02T14:02:47.104Z,136.05
2023-02-02T14:03:46.947Z,132.83
2023-02-02T14:04:46.929Z,134.65
2023-02-02T14:05:46.927Z,131.00
2023-02-02T14:07:46.924Z,130.37
2023-02-02T14:08:46.907Z,133.48
2023-02-02T14:09:46.966Z,132.44
2023-02-02T14:10:46.905Z,129.36
2023-02-02T14:12:46.889Z,129.93
2023-02-02T14:13:47.029Z,131.98
2023-02-02T14:14:46.851Z,128.86
2023-02-02T14:15:46.892Z,128.16
2023-02-02T14:16:46.847Z,130.80
2023-02-02T14:17:46.846Z,128.47
2023-02-02T14:18:46.834Z,130.65
2023-02-02T14:19:46.830Z,128.03
2023-02-02T14:20:46.794Z,127.17
2023-02-02T14:21:47.767Z,128.04
2023-02-02T14:22:47.248Z,124.93
2023-02-02T14:23:47.095Z,126.33
2023-02-02T14:24:46.778Z,125.03
2023-02-02T14:25:46.759Z,126.31
2023-02-02T14:26:46.867Z,126.08
2023-02-02T14:27:46.751Z,125.43
2023-02-02T14:28:46.735Z,123.59
2023-02-02T14:29:47.240Z,125.47
2023-02-02T14:30:46.812Z,125.67
2023-02-02T14:31:46.723Z,124.89
2023-02-02T14:32:46.721Z,122.80
2023-02-02T14:33:46.663Z,122.05
2023-02-02T14:34:46.669Z,120.77
2023-02-02T14:36:47.682Z,120.51
2023-02-02T14:38:46.646Z,119.69
2023-02-02T14:40:46.642Z,118.39
2023-02-02T14:41:46.632Z,118.97
2023-02-02T14:43:46.577Z,116.74
2023-02-02T14:45:46.592Z,114.27
2023-02-02T14:46:46.554Z,114.78
2023-02-02T14:47:46.543Z,113.41
2023-02-02T14:48:46.564Z,115.29
2023-02-02T14:49:46.519Z,114.98
2023-02-02T14:50:46.521Z,115.25
2023-02-02T14:51:46.551Z,113.56
2023-02-02T14:52:46.981Z,115.01
2023-02-02T14:53:46.487Z,112.19
2023-02-02T14:54:46.479Z,113.23
2023-02-02T14:55:46.480Z,113.08
2023-02-02T14:56:46.457Z,111.70
2023-02-02T14:57:46.451Z,109.95
2023-02-02T14:58:46.438Z,111.30
2023-02-02T14:59:46.441Z,110.08
2023-02-02T15:00:46.436Z,109.88
2023-02-02T15:01:46.578Z,111.20
2023-02-02T15:02:46.450Z,111.14
2023-02-02T15:03:46.401Z,109.38
2023-02-02T15:04:46.485Z,110.09
2023-02-02T15:05:46.523Z,109.96
2023-02-02T15:06:46.394Z,107.30
2023-02-02T15:07:46.370Z,107.88
2023-02-02T15:08:46.494Z,108.05
2023-02-02T15:09:46.355Z,106.05
2023-02-02T15:10:46.338Z,108.26
2023-02-02T15:11:46.365Z,103.87
2023-02-02T15:12:46.327Z,104.41
2023-02-02T15:13:46.339Z,103.12
2023-02-02T15:14:46.295Z,102.60
2023-02-02T15:15:46.295Z,102.67
2023-02-02T15:16:46.301Z,103.99
2023-02-02T15:17:46.299Z,101.57
2023-02-02T15:18:46.279Z,101.07
2023-02-02T15:19:46.253Z,102.40
2023-02-02T15:20:46.243Z,100.86
2023-02-02T15:21:46.331Z,99.32
2023-02-02T15:22:46.235Z,99.13
2023-02-02T15:23:46.229Z,98.49
2023-02-02T15:24:46.216Z,98.35
2023-02-02T15:25:46.241Z,96.52
2023-02-02T15:26:46.232Z,97.19
2023-02-02T15:27:56.304Z,95.49
2023-02-02T15:28:46.190Z,95.82
2023-02-02T15:29:46.166Z,96.05
2023-02-02T15:30:46.199Z,96.51
2023-02-02T15:31:46.200Z,96.92
2023-02-02T15:32:46.133Z,95.83
2023-02-02T15:33:46.152Z,93.53
2023-02-02T15:34:46.500Z,94.26
2023-02-02T15:35:46.103Z,94.47
2023-02-02T15:36:46.118Z,91.35
2023-02-02T15:37:46.103Z,91.74
2023-02-02T15:38:46.085Z,91.18
2023-02-02T15:39:46.496Z,89.13
2023-02-02T15:40:46.071Z,87.83
2023-02-02T15:41:46.055Z,87.01
2023-02-02T15:42:46.046Z,89.22
2023-02-02T15:43:46.038Z,88.98
2023-02-02T15:44:46.046Z,89.39
2023-02-02T15:45:46.028Z,85.23
2023-02-02T15:46:46.045Z,88.89
2023-02-02T15:47:46.498Z,86.12
2023-02-02T15:48:45.987Z,87.67
2023-02-02T15:49:46.007Z,84.49
2023-02-02T15:50:45.975Z,85.47
2023-02-02T15:51:46.004Z,84.22
2023-02-02T15:52:46.500Z,84.08
2023-02-02T15:53:45.951Z,82.17
2023-02-02T15:54:45.939Z,81.89
2023-02-02T15:55:45.929Z,81.10
2023-02-02T15:56:45.916Z,81.89
2023-02-02T15:57:45.914Z,77.63
2023-02-02T15:58:45.905Z,83.26
2023-02-02T15:59:45.900Z,78.64
2023-02-02T16:00:45.909Z,79.14
2023-02-02T16:01:45.909Z,80.62
2023-02-02T16:02:45.865Z,79.76
2023-02-02T16:03:45.860Z,77.71
2023-02-02T16:04:45.850Z,78.57
2023-02-02T16:05:45.983Z,78.61
2023-02-02T16:06:45.855Z,75.57
2023-02-02T16:07:53.180Z,77.50
2023-02-02T16:08:45.817Z,77.83
2023-02-02T16:09:45.802Z,78.47
2023-02-02T16:10:46.801Z,78.20
2023-02-02T16:11:45.797Z,79.34
2023-02-02T16:12:45.806Z,78.32
2023-02-02T16:13:45.775Z,79.92
2023-02-02T20:00:43.871Z,32.78
2023-02-02T20:01:43.747Z,31.37
2023-02-02T20:02:43.828Z,30.81
2023-02-02T20:03:43.730Z,30.41
2023-02-02T20:04:43.725Z,32.82
2023-02-02T20:05:43.773Z,29.72
2023-02-02T20:06:58.016Z,32.24
2023-02-02T20:07:43.706Z,32.48
2023-02-02T20:08:43.691Z,32.98
2023-02-02T20:09:43.681Z,32.40
2023-02-02T20:10:43.665Z,32.79
2023-02-02T20:11:43.657Z,32.22
2023-02-02T20:12:43.649Z,30.87
2023-02-02T20:13:43.635Z,32.42
2023-02-02T20:14:43.642Z,31.29
2023-02-02T20:15:43.624Z,32.56
2023-02-02T20:16:43.661Z,28.12
2023-02-02T20:17:43.637Z,31.11
2023-02-02T20:18:43.601Z,29.47
2023-02-02T20:19:43.596Z,30.12
2023-02-02T20:20:43.584Z,28.21
2023-02-02T20:21:43.592Z,32.06
2023-02-02T20:22:43.562Z,29.21
2023-02-02T20:23:43.562Z,28.07
2023-02-02T20:24:43.544Z,29.05
2023-02-02T20:25:43.540Z,28.11
2023-02-02T20:26:43.568Z,26.17
2023-02-02T20:27:43.513Z,32.38
2023-02-02T20:28:43.510Z,30.67
2023-02-02T20:29:43.516Z,30.13
2023-02-02T20:30:43.535Z,30.78
2023-02-02T20:31:43.570Z,28.99
2023-02-02T20:32:43.472Z,31.58
2023-02-02T20:33:43.473Z,31.27
2023-02-02T20:34:43.459Z,28.21
2023-02-02T20:35:43.459Z,26.56
2023-02-02T20:36:43.436Z,30.18
2023-02-02T20:37:43.451Z,30.78
2023-02-02T20:38:43.423Z,27.39
2023-02-02T20:39:43.419Z,27.77
2023-02-02T20:40:43.403Z,27.96
2023-02-02T20:41:43.394Z,26.12
2023-02-02T20:42:43.384Z,28.08
2023-02-02T20:43:43.372Z,30.09
2023-02-02T20:44:43.371Z,29.58
2023-02-02T20:45:43.450Z,29.79
2023-02-02T20:46:43.348Z,30.95
2023-02-02T20:47:43.351Z,27.88
2023-02-02T20:48:43.332Z,28.31
2023-02-02T20:49:43.340Z,29.29
2023-02-02T20:50:43.324Z,29.69
2023-02-02T20:51:43.306Z,31.28
2023-02-02T20:52:43.295Z,29.17
2023-02-02T20:53:43.312Z,26.92
2023-02-02T20:54:43.281Z,27.16
2023-02-02T20:55:43.272Z,25.77
2023-02-02T20:56:43.262Z,30.58
2023-02-02T20:57:43.248Z,29.25
2023-02-02T20:58:43.247Z,29.77
2023-02-02T20:59:43.233Z,30.51
2023-02-02T21:00:43.324Z,30.45
2023-02-02T21:01:43.219Z,27.79
2023-02-02T21:02:43.305Z,29.75
2023-02-02T21:03:43.197Z,29.95
2023-02-02T21:04:43.189Z,27.57
2023-02-02T21:05:43.182Z,28.81
2023-02-02T21:06:43.175Z,26.53
2023-02-02T21:07:43.163Z,28.37
2023-02-02T21:08:43.158Z,28.33
2023-02-02T21:09:43.171Z,25.00
2023-02-02T21:10:43.146Z,28.25
2023-02-02T21:11:43.126Z,28.50
2023-02-02T21:12:43.120Z,29.90
2023-02-02T21:13:43.112Z,29.07
2023-02-02T21:14:43.104Z,29.69
2023-02-02T21:15:43.095Z,29.55
2023-02-02T21:16:43.140Z,28.62
2023-02-02T21:17:43.078Z,28.73
2023-02-02T21:18:43.066Z,29.79
2023-02-02T21:19:43.069Z,30.29
2023-02-02T21:20:43.052Z,28.97
2023-02-02T21:21:43.078Z,26.68
2023-02-02T21:22:43.030Z,27.86
2023-02-02T21:23:43.039Z,28.29
2023-02-02T21:24:43.039Z,28.06
2023-02-02T21:25:43.026Z,27.84
2023-02-02T21:26:43.001Z,29.42
2023-02-02T21:27:43.014Z,27.84
2023-02-02T21:28:42.983Z,25.22
2023-02-02T21:29:42.972Z,29.99
2023-02-02T21:30:43.166Z,30.22
2023-02-02T21:31:43.059Z,28.88
2023-02-02T21:32:42.945Z,30.34
2023-02-02T21:33:42.932Z,30.40
2023-02-02T21:34:42.928Z,28.79
2023-02-02T21:35:42.910Z,30.06
2023-02-02T21:36:42.904Z,28.62
2023-02-02T21:37:42.908Z,28.89
2023-02-02T21:38:42.897Z,26.02
2023-02-02T21:39:42.878Z,30.75
2023-02-02T21:40:42.883Z,29.96
2023-02-02T21:41:42.890Z,29.29
2023-02-02T21:42:42.853Z,27.70
2023-02-02T21:43:42.863Z,28.71
2023-02-02T21:44:42.835Z,27.74
2023-02-02T21:45:42.923Z,27.77
2023-02-02T21:46:42.820Z,27.61
2023-02-02T21:47:42.816Z,28.35
2023-02-02T21:48:42.816Z,28.37
2023-02-02T21:49:42.801Z,28.32
2023-02-02T21:50:42.785Z,25.02
2023-02-02T21:51:42.781Z,26.34
2023-02-02T21:52:42.770Z,27.04
2023-02-02T21:53:42.757Z,25.00
2023-02-02T21:54:42.765Z,29.65
2023-02-02T21:55:42.740Z,27.59
2023-02-02T21:56:42.725Z,29.97
2023-02-02T21:57:42.753Z,28.96
2023-02-02T21:58:42.712Z,26.20
2023-02-02T21:59:42.703Z,30.78
2023-02-02T22:00:42.698Z,25.66
2023-02-02T22:01:42.717Z,28.15
2023-02-02T22:02:45.015Z,28.10
2023-02-02T22:03:42.665Z,28.37
2023-02-02T22:04:42.662Z,28.80
2023-02-02T22:05:42.653Z,28.83
2023-02-02T22:06:42.640Z,27.54
2023-02-02T22:07:42.632Z,26.09
2023-02-02T22:08:42.628Z,27.13
2023-02-02T22:09:42.632Z,29.40
2023-02-02T22:10:42.610Z,25.98
2023-02-02T22:11:42.596Z,28.53
2023-02-02T22:12:42.587Z,26.20
2023-02-02T22:13:42.601Z,27.94
2023-02-02T22:14:42.588Z,28.58
2023-02-02T22:15:42.584Z,28.62
2023-02-02T22:16:42.551Z,28.63
2023-02-02T22:17:42.543Z,25.92
2023-02-02T22:18:42.541Z,29.66
2023-02-02T22:19:42.526Z,27.00
2023-02-02T22:20:42.518Z,27.24
2023-02-02T22:21:42.509Z,27.74
2023-02-02T22:22:42.493Z,27.40
2023-02-02T22:23:42.491Z,28.52
2023-02-02T22:24:42.480Z,30.65
2023-02-02T22:25:42.473Z,26.28
2023-02-02T22:26:42.472Z,26.61
2023-02-02T22:27:42.564Z,28.27
2023-02-02T22:28:42.448Z,26.61
2023-02-02T22:29:42.459Z,27.34
2023-02-02T22:30:42.550Z,27.14
2023-02-02T22:31:42.513Z,28.79
2023-02-02T22:32:42.417Z,26.48
2023-02-02T22:33:42.400Z,27.05
2023-02-02T22:34:42.396Z,28.33
2023-02-02T22:35:42.406Z,29.07
2023-02-02T22:36:42.374Z,27.50
2023-02-02T22:37:42.375Z,31.19
2023-02-02T22:38:42.356Z,28.75
2023-02-02T22:39:42.348Z,26.84
2023-02-02T22:40:42.342Z,28.52
2023-02-02T22:41:42.339Z,28.88
2023-02-02T22:42:42.329Z,25.62
2023-02-02T22:43:42.314Z,27.16
2023-02-02T22:44:42.304Z,29.72
2023-02-02T22:45:42.320Z,26.65
2023-02-02T22:46:42.324Z,27.32
2023-02-02T22:47:42.282Z,26.68
2023-02-02T22:48:42.269Z,28.55
2023-02-02T22:49:42.262Z,27.41
2023-02-02T22:50:42.262Z,29.20
2023-02-02T22:51:42.242Z,27.56
2023-02-02T22:52:42.235Z,29.60
2023-02-02T22:53:42.235Z,28.96
2023-02-02T22:54:42.221Z,26.67
2023-02-02T22:55:42.264Z,28.42
2023-02-02T22:56:42.209Z,27.62
2023-02-02T22:57:42.196Z,28.20
2023-02-02T22:58:42.186Z,28.85
2023-02-02T22:59:42.171Z,25.00
2023-02-02T23:00:42.161Z,27.31
2023-02-02T23:01:42.181Z,29.79
2023-02-02T23:02:42.269Z,27.02
2023-02-02T23:03:42.205Z,26.44
2023-02-02T23:04:42.134Z,29.34
2023-02-02T23:05:42.118Z,27.80
2023-02-02T23:06:42.120Z,26.49
2023-02-02T23:07:42.098Z,29.59
2023-02-02T23:08:42.107Z,29.15
2023-02-02T23:09:42.087Z,28.39
2023-02-02T23:10:42.077Z,27.74
2023-02-02T23:11:42.074Z,28.01
2023-02-02T23:12:42.054Z,27.54
2023-02-02T23:13:42.049Z,27.12
2023-02-02T23:14:42.040Z,28.32
2023-02-02T23:15:42.063Z,28.72
2023-02-02T23:16:42.027Z,27.57
2023-02-02T23:17:42.054Z,28.53
2023-02-02T23:18:42.015Z,27.67
2023-02-02T23:19:41.993Z,28.24
2023-02-02T23:20:41.985Z,29.60
2023-02-02T23:21:41.987Z,30.28
2023-02-02T23:22:41.981Z,29.24
2023-02-02T23:23:41.968Z,30.13
2023-02-02T23:24:41.963Z,28.79
2023-02-02T23:25:41.963Z,31.36
2023-02-02T23:26:41.945Z,28.99
2023-02-02T23:27:42.029Z,27.81
2023-02-02T23:28:41.938Z,30.21
2023-02-02T23:29:41.965Z,28.97
2023-02-02T23:30:41.919Z,31.38
2023-02-02T23:31:41.978Z,28.30
2023-02-02T23:32:41.898Z,26.18
2023-02-02T23:33:41.898Z,28.53
2023-02-02T23:34:41.865Z,28.29
2023-02-02T23:35:41.853Z,29.03
2023-02-02T23:36:41.854Z,29.50
2023-02-02T23:37:41.842Z,32.50
2023-02-02T23:38:41.832Z,25.89
2023-02-02T23:39:41.819Z,26.80
2023-02-02T23:40:41.816Z,28.82
2023-02-02T23:41:41.821Z,27.03
2023-02-02T23:42:41.803Z,28.92
2023-02-02T23:43:41.785Z,27.90
2023-02-02T23:44:41.780Z,25.91
2023-02-02T23:45:41.778Z,27.14
2023-02-02T23:46:41.854Z,27.73
2023-02-02T23:47:41.752Z,27.80
2023-02-02T23:48:41.746Z,25.48
2023-02-02T23:49:41.751Z,30.76
2023-02-02T23:50:41.723Z,27.54
2023-02-02T23:51:41.716Z,27.95
2023-02-02T23:52:41.711Z,30.51
2023-02-02T23:53:41.695Z,26.35
2023-02-02T23:54:41.696Z,28.55
2023-02-02T23:55:41.677Z,26.83
2023-02-02T23:56:41.664Z,27.63
2023-02-02T23:57:41.662Z,30.51
2023-02-02T23:58:41.654Z,29.73
2023-02-02T23:59:41.653Z,30.65
